Oroshaza, Hungary
Current Conditions -  °F | °C
As of 9:45 AM on Friday 31 Oct 2014 (Local Time) from LHUD Reporting Station
Haze Haze  
Wind Chill: 45°   Ceiling: Unl
Heat Index: 45°   Visibility: 1.8mi
Dew Point: 41°   Wind: 3mph
Humidity: 87%   Direction: 350°N
Pressure: 30.36"   Gusts: NA
Location:  46.57°N, 20.67°E
Report Text: LHUD 310745Z 35003KT 3000 BR NSC 07/05 Q1028
Loading
Personal Weather Stations






























Interactive Weather Map
Tropical Storm Tracking
New forecast layout! Learn more

10-Day Weather Forecast

Advertisements
Track Severe Weather on mobile